Time;durP1;ratioP1;P1;durP2;ratioP2;P2;SDS_P1;SDS_P2;PMS_P1;PMS_P2;Temp;Humidity;BMP_temperature;BMP_pressure;BME280_temperature;BME280_humidity;BME280_pressure;Samples;Min_cycle;Max_cycle;Signal;HPM_P1;HPM_P2
2023/10/04 00:01:50;;;;;;;;;;;12.50;99.90;;;;;;5026916;28;19948;-92
2023/10/04 00:04:16;;;;;;;;;;;12.50;99.90;;;;;;5030917;28;19975;-92
2023/10/04 00:06:42;;;;;;;;;;;12.50;99.90;;;;;;5030406;28;19940;-93
2023/10/04 00:09:09;;;;;;;;;;;12.50;99.90;;;;;;5031289;28;19929;-95
2023/10/04 00:11:35;;;;;;;;;;;12.40;99.90;;;;;;5027889;28;19936;-94
2023/10/04 00:14:01;;;;;;;;;;;12.50;99.90;;;;;;5031900;28;20226;-93
2023/10/04 00:16:26;;;;;;;;;;;12.50;99.90;;;;;;5033203;28;19932;-93
2023/10/04 00:18:54;;;;;;;;;;;12.50;99.90;;;;;;5034424;28;19929;-92
2023/10/04 00:21:20;;;;;;;;;;;12.50;99.90;;;;;;5038745;28;19940;-92
2023/10/04 00:23:45;;;;;;;;;;;12.50;99.90;;;;;;5023074;28;19964;-90
2023/10/04 00:26:11;;;;;;;;;;;12.50;99.90;;;;;;5027627;28;19929;-90
2023/10/04 00:28:38;;;;;;;;;;;12.50;99.90;;;;;;5029787;28;20371;-90
2023/10/04 00:31:05;;;;;;;;;;;12.50;99.90;;;;;;5029256;28;19929;-91
2023/10/04 00:33:31;;;;;;;;;;;12.50;99.90;;;;;;5027610;28;19925;-90
2023/10/04 00:36:02;;;;;;;;;;;12.50;99.90;;;;;;5023920;28;19925;-90
2023/10/04 00:38:27;;;;;;;;;;;12.50;99.90;;;;;;5023868;28;19933;-93
2023/10/04 00:40:53;;;;;;;;;;;12.50;99.90;;;;;;5028321;28;19929;-89
2023/10/04 00:43:19;;;;;;;;;;;12.40;99.90;;;;;;5031389;28;19997;-90
2023/10/04 00:45:49;;;;;;;;;;;12.40;99.90;;;;;;5030454;28;20340;-90
2023/10/04 00:48:18;;;;;;;;;;;12.40;99.90;;;;;;5021120;28;19940;-90
2023/10/04 00:50:44;;;;;;;;;;;12.30;99.90;;;;;;5023418;28;19944;-91
2023/10/04 00:53:12;;;;;;;;;;;12.30;99.90;;;;;;5027876;28;19988;-91
2023/10/04 00:55:44;;;;;;;;;;;12.20;99.90;;;;;;5031795;28;20020;-91
2023/10/04 00:58:10;;;;;;;;;;;12.30;99.90;;;;;;5022238;28;19932;-92
2023/10/04 01:00:38;;;;;;;;;;;12.20;99.90;;;;;;5029017;28;20440;-89
2023/10/04 01:03:05;;;;;;;;;;;12.20;99.90;;;;;;5036812;28;19933;-90
2023/10/04 01:05:32;;;;;;;;;;;12.20;99.90;;;;;;5041165;28;20581;-92
2023/10/04 01:07:58;;;;;;;;;;;12.10;99.90;;;;;;5034071;28;19937;-90
2023/10/04 01:10:27;;;;;;;;;;;12.10;99.90;;;;;;5028884;28;20448;-91
2023/10/04 01:12:55;;;;;;;;;;;12.10;99.90;;;;;;5024971;28;19934;-91
2023/10/04 01:15:32;;;;;;;;;;;12.10;99.90;;;;;;5028624;28;20056;-91
2023/10/04 01:17:58;;;;;;;;;;;12.10;99.90;;;;;;5024954;28;19960;-91
2023/10/04 01:20:24;;;;;;;;;;;12.10;99.90;;;;;;5045030;28;21334;-89
2023/10/04 01:22:54;;;;;;;;;;;12.10;99.90;;;;;;5042537;28;19965;-90
2023/10/04 01:25:20;;;;;;;;;;;12.10;99.90;;;;;;5038119;28;19928;-89
2023/10/04 01:27:45;;;;;;;;;;;12.10;99.90;;;;;;5030318;28;19960;-91
2023/10/04 01:30:13;;;;;;;;;;;12.00;99.90;;;;;;5035326;28;19971;-91
2023/10/04 01:32:39;;;;;;;;;;;12.00;99.90;;;;;;5037486;28;20475;-90
2023/10/04 01:35:08;;;;;;;;;;;12.00;99.90;;;;;;5029193;28;20300;-93
2023/10/04 01:37:37;;;;;;;;;;;12.00;99.90;;;;;;5028713;28;19933;-92
2023/10/04 01:40:05;;;;;;;;;;;12.00;99.90;;;;;;5030417;28;19971;-90
2023/10/04 01:42:31;;;;;;;;;;;12.00;99.90;;;;;;5026498;28;19941;-91
2023/10/04 01:44:57;;;;;;;;;;;12.00;99.90;;;;;;5035416;28;19953;-91
2023/10/04 01:47:24;;;;;;;;;;;12.00;99.90;;;;;;5032839;28;19925;-90
2023/10/04 01:49:50;;;;;;;;;;;12.00;99.90;;;;;;5032193;28;19997;-91
2023/10/04 01:52:16;;;;;;;;;;;12.00;99.90;;;;;;5037693;28;19925;-92
2023/10/04 01:54:41;;;;;;;;;;;11.90;99.90;;;;;;5032332;28;19957;-91
2023/10/04 01:57:07;;;;;;;;;;;11.90;99.90;;;;;;5038685;28;19969;-92
2023/10/04 01:59:33;;;;;;;;;;;11.90;99.90;;;;;;5037478;28;19926;-91
2023/10/04 02:01:59;;;;;;;;;;;11.90;99.90;;;;;;5041158;28;20297;-91
2023/10/04 02:04:25;;;;;;;;;;;11.90;99.90;;;;;;5040578;28;20003;-90
2023/10/04 02:06:50;;;;;;;;;;;11.90;99.90;;;;;;5040369;28;20031;-91
2023/10/04 02:09:18;;;;;;;;;;;11.90;99.90;;;;;;5039565;28;19932;-91
2023/10/04 02:11:44;;;;;;;;;;;11.90;99.90;;;;;;5031023;28;19929;-91
2023/10/04 02:14:11;;;;;;;;;;;11.90;99.90;;;;;;5032446;28;19932;-90
2023/10/04 02:16:37;;;;;;;;;;;11.90;99.90;;;;;;5026534;28;19926;-90
2023/10/04 02:19:03;;;;;;;;;;;11.90;99.90;;;;;;5037031;28;19996;-91
2023/10/04 02:21:28;;;;;;;;;;;11.90;99.90;;;;;;5023439;28;20477;-92
2023/10/04 02:23:54;;;;;;;;;;;12.00;99.90;;;;;;5056240;28;19929;-90
2023/10/04 02:26:23;;;;;;;;;;;12.00;99.90;;;;;;5038613;28;19926;-91
2023/10/04 02:28:51;;;;;;;;;;;12.00;99.90;;;;;;5036470;28;20027;-92
2023/10/04 02:31:20;;;;;;;;;;;12.00;99.90;;;;;;5028656;28;19925;-91
2023/10/04 02:33:46;;;;;;;;;;;12.00;99.90;;;;;;5028159;28;19951;-87
2023/10/04 02:36:11;;;;;;;;;;;12.10;99.90;;;;;;5034730;28;19932;-92
2023/10/04 02:38:37;;;;;;;;;;;12.10;99.90;;;;;;5024096;28;19925;-90
2023/10/04 02:41:06;;;;;;;;;;;12.10;99.90;;;;;;5030006;28;19925;-89
2023/10/04 02:43:32;;;;;;;;;;;12.10;99.90;;;;;;5024277;28;19929;-89
2023/10/04 02:45:58;;;;;;;;;;;12.10;99.90;;;;;;5028337;28;19953;-91
2023/10/04 02:48:24;;;;;;;;;;;12.20;99.90;;;;;;5036004;28;19933;-89
2023/10/04 02:50:50;;;;;;;;;;;12.20;99.90;;;;;;5035211;28;19929;-89
2023/10/04 02:53:24;;;;;;;;;;;12.20;99.90;;;;;;5024691;28;20047;-90
2023/10/04 02:55:54;;;;;;;;;;;12.20;99.90;;;;;;5028720;28;19929;-88
2023/10/04 02:58:20;;;;;;;;;;;12.20;99.90;;;;;;5036468;28;19976;-88
2023/10/04 03:00:46;;;;;;;;;;;12.20;99.90;;;;;;5037932;28;19925;-89
2023/10/04 03:03:19;;;;;;;;;;;12.20;99.90;;;;;;5037304;28;19932;-90
2023/10/04 03:05:45;;;;;;;;;;;12.10;99.90;;;;;;5041606;28;19937;-88
2023/10/04 03:08:11;;;;;;;;;;;12.10;99.90;;;;;;5035135;28;19988;-88
2023/10/04 03:10:37;;;;;;;;;;;12.10;99.90;;;;;;5032442;28;19955;-89
2023/10/04 03:13:06;;;;;;;;;;;12.10;99.90;;;;;;5032084;28;19933;-87
2023/10/04 03:15:32;;;;;;;;;;;12.00;99.90;;;;;;5033656;28;19929;-87
2023/10/04 03:17:59;;;;;;;;;;;12.00;99.90;;;;;;5027529;28;19983;-88
2023/10/04 03:20:28;;;;;;;;;;;11.90;99.90;;;;;;5028130;28;19988;-88
2023/10/04 03:23:11;;;;;;;;;;;11.90;99.90;;;;;;5029245;28;20396;-90
2023/10/04 03:25:36;;;;;;;;;;;11.90;99.90;;;;;;5030864;28;19932;-88
2023/10/04 03:28:02;;;;;;;;;;;11.80;99.90;;;;;;5028691;28;19969;-87
2023/10/04 03:30:28;;;;;;;;;;;11.80;99.90;;;;;;5032085;28;19932;-87
2023/10/04 03:32:56;;;;;;;;;;;11.80;99.90;;;;;;5027772;28;19929;-88
2023/10/04 03:35:22;;;;;;;;;;;11.80;99.90;;;;;;5028219;28;19975;-88
2023/10/04 03:37:58;;;;;;;;;;;11.80;99.90;;;;;;5026246;28;19926;-88
2023/10/04 03:40:34;;;;;;;;;;;11.80;99.90;;;;;;5026106;28;19929;-87
2023/10/04 03:43:05;;;;;;;;;;;11.80;99.90;;;;;;5028773;28;19951;-88
2023/10/04 03:45:32;;;;;;;;;;;11.80;99.90;;;;;;5026408;28;19991;-87
2023/10/04 03:47:58;;;;;;;;;;;11.80;99.90;;;;;;5028187;28;19929;-87
2023/10/04 03:50:24;;;;;;;;;;;11.80;99.90;;;;;;5027403;28;20447;-86
2023/10/04 03:52:52;;;;;;;;;;;11.80;99.90;;;;;;5026722;28;19932;-87
2023/10/04 03:55:18;;;;;;;;;;;11.80;99.90;;;;;;5027190;28;19926;-87
2023/10/04 03:57:43;;;;;;;;;;;11.80;99.90;;;;;;5026785;28;20427;-87
2023/10/04 04:00:15;;;;;;;;;;;11.80;99.90;;;;;;5034185;28;19949;-88
2023/10/04 04:02:41;;;;;;;;;;;11.80;99.90;;;;;;5026183;28;19926;-87
2023/10/04 04:05:11;;;;;;;;;;;11.80;99.90;;;;;;5030469;28;19932;-86
2023/10/04 04:07:37;;;;;;;;;;;11.80;99.90;;;;;;5029624;28;19925;-87
2023/10/04 04:10:03;;;;;;;;;;;11.80;99.90;;;;;;5028166;28;19933;-86
2023/10/04 04:12:29;;;;;;;;;;;11.80;99.90;;;;;;5024970;28;19926;-87
2023/10/04 04:14:54;;;;;;;;;;;11.80;99.90;;;;;;5031978;28;20068;-87
2023/10/04 04:17:22;;;;;;;;;;;11.80;99.90;;;;;;5030556;28;20284;-86
2023/10/04 04:19:49;;;;;;;;;;;11.80;99.90;;;;;;5031079;28;19925;-88
2023/10/04 04:22:17;;;;;;;;;;;11.80;99.90;;;;;;5031228;28;19925;-87
2023/10/04 04:24:43;;;;;;;;;;;11.80;99.90;;;;;;5044827;28;19940;-87
2023/10/04 04:27:08;;;;;;;;;;;11.80;99.90;;;;;;5026724;28;19998;-87
2023/10/04 04:29:35;;;;;;;;;;;11.80;99.90;;;;;;5023386;28;19937;-88
2023/10/04 04:32:03;;;;;;;;;;;11.80;99.90;;;;;;5025106;28;19972;-88
2023/10/04 04:34:29;;;;;;;;;;;11.80;99.90;;;;;;5030751;28;19929;-86
2023/10/04 04:36:56;;;;;;;;;;;11.80;99.90;;;;;;5026109;28;19971;-88
2023/10/04 04:39:28;;;;;;;;;;;11.80;99.90;;;;;;5024932;28;19968;-88
2023/10/04 04:41:55;;;;;;;;;;;11.80;99.90;;;;;;5025662;28;20039;-87
2023/10/04 04:44:27;;;;;;;;;;;11.80;99.90;;;;;;5029721;28;19925;-88
2023/10/04 04:46:53;;;;;;;;;;;11.80;99.90;;;;;;5031903;28;20005;-87
2023/10/04 04:49:19;;;;;;;;;;;11.80;99.90;;;;;;5025362;28;19936;-87
2023/10/04 04:51:45;;;;;;;;;;;11.80;99.90;;;;;;5026855;28;19956;-87
2023/10/04 04:54:10;;;;;;;;;;;11.80;99.90;;;;;;5026429;28;19980;-87
2023/10/04 04:56:38;;;;;;;;;;;11.80;99.90;;;;;;5028137;28;19932;-87
2023/10/04 04:59:07;;;;;;;;;;;11.80;99.90;;;;;;5045257;28;19936;-87
2023/10/04 05:01:34;;;;;;;;;;;11.80;99.90;;;;;;5038788;28;19929;-87
2023/10/04 05:04:03;;;;;;;;;;;11.80;99.90;;;;;;5046160;28;19925;-87
2023/10/04 05:06:29;;;;;;;;;;;11.80;99.90;;;;;;5041250;28;19930;-87
2023/10/04 05:08:54;;;;;;;;;;;11.80;99.90;;;;;;5032864;28;19925;-87
2023/10/04 05:11:20;;;;;;;;;;;11.70;99.90;;;;;;5038753;28;20011;-87
2023/10/04 05:13:46;;;;;;;;;;;11.60;99.90;;;;;;5035150;28;19944;-88
2023/10/04 05:16:12;;;;;;;;;;;11.60;99.90;;;;;;5026565;28;20119;-88
2023/10/04 05:18:38;;;;;;;;;;;11.60;99.90;;;;;;5027089;28;19952;-87
2023/10/04 05:21:04;;;;;;;;;;;11.60;99.90;;;;;;5021763;28;20399;-88
2023/10/04 05:23:30;;;;;;;;;;;11.50;99.90;;;;;;5035309;28;19926;-88
2023/10/04 05:25:56;;;;;;;;;;;11.40;99.90;;;;;;5032292;28;19932;-88
2023/10/04 05:28:22;;;;;;;;;;;11.40;99.90;;;;;;5030822;28;20261;-87
2023/10/04 05:30:48;;;;;;;;;;;11.40;99.90;;;;;;5025329;28;19940;-88
2023/10/04 05:33:14;;;;;;;;;;;11.40;99.90;;;;;;5029629;28;19929;-88
2023/10/04 05:35:40;;;;;;;;;;;11.40;99.90;;;;;;5025662;28;20368;-87
2023/10/04 05:38:07;;;;;;;;;;;11.30;99.90;;;;;;5024393;28;19930;-87
2023/10/04 05:40:34;;;;;;;;;;;11.30;99.90;;;;;;5022176;28;20029;-88
2023/10/04 05:43:00;;;;;;;;;;;11.30;99.90;;;;;;5030014;28;20723;-87
2023/10/04 05:45:25;;;;;;;;;;;11.30;99.90;;;;;;5028961;28;20029;-89
2023/10/04 05:47:52;;;;;;;;;;;11.30;99.90;;;;;;5027686;28;19971;-87
2023/10/04 05:50:18;;;;;;;;;;;11.40;99.90;;;;;;5024024;28;20020;-87
2023/10/04 05:52:44;;;;;;;;;;;11.40;99.90;;;;;;5031433;28;19985;-87
2023/10/04 05:55:10;;;;;;;;;;;11.50;99.90;;;;;;5013983;28;19933;-89
2023/10/04 05:57:36;;;;;;;;;;;11.60;99.90;;;;;;5024174;28;19933;-88
2023/10/04 06:00:22;;;;;;;;;;;11.60;99.90;;;;;;5026858;28;19989;-87
2023/10/04 06:02:51;;;;;;;;;;;11.70;99.90;;;;;;5025684;28;20293;-87
2023/10/04 06:05:19;;;;;;;;;;;11.70;99.90;;;;;;5027371;28;19988;-88
2023/10/04 06:07:46;;;;;;;;;;;11.70;99.90;;;;;;5030303;28;19933;-90
2023/10/04 06:10:13;;;;;;;;;;;11.70;99.90;;;;;;5024748;28;19925;-87
2023/10/04 06:12:39;;;;;;;;;;;11.70;99.90;;;;;;5023320;28;19933;-89
2023/10/04 06:15:04;;;;;;;;;;;11.80;99.90;;;;;;5030468;28;19936;-88
2023/10/04 06:17:31;;;;;;;;;;;11.80;99.90;;;;;;5034952;28;19972;-89
2023/10/04 06:19:57;;;;;;;;;;;11.80;99.90;;;;;;5035328;28;19929;-89
2023/10/04 06:22:22;;;;;;;;;;;11.80;99.90;;;;;;5031634;28;19976;-90
2023/10/04 06:24:49;;;;;;;;;;;11.90;99.90;;;;;;5030854;28;19925;-88
2023/10/04 06:27:15;;;;;;;;;;;11.90;99.90;;;;;;5023230;28;19925;-89
2023/10/04 06:29:41;;;;;;;;;;;11.90;99.90;;;;;;5020895;28;19933;-90
2023/10/04 06:32:07;;;;;;;;;;;12.00;99.90;;;;;;5026993;28;19933;-89
2023/10/04 06:34:32;;;;;;;;;;;12.00;99.90;;;;;;5024501;28;19925;-90
2023/10/04 06:36:58;;;;;;;;;;;12.00;99.90;;;;;;5027578;28;19925;-88
2023/10/04 06:39:23;;;;;;;;;;;12.10;99.90;;;;;;5028979;28;19957;-88
2023/10/04 06:41:49;;;;;;;;;;;12.10;99.90;;;;;;5027754;28;19940;-87
2023/10/04 06:44:15;;;;;;;;;;;12.20;99.90;;;;;;5025189;28;19956;-87
2023/10/04 06:46:40;;;;;;;;;;;12.20;99.90;;;;;;5028936;28;19929;-87
2023/10/04 06:49:06;;;;;;;;;;;12.20;99.90;;;;;;5027600;28;19940;-87
2023/10/04 06:51:31;;;;;;;;;;;12.30;99.90;;;;;;5023583;28;19992;-88
2023/10/04 06:53:58;;;;;;;;;;;12.30;99.90;;;;;;5031616;28;19932;-89
2023/10/04 06:56:24;;;;;;;;;;;12.30;99.90;;;;;;5035238;28;19929;-88
2023/10/04 06:58:50;;;;;;;;;;;12.40;99.90;;;;;;5046201;28;19954;-87
2023/10/04 07:01:16;;;;;;;;;;;12.50;99.90;;;;;;5043661;28;19925;-87
2023/10/04 07:03:43;;;;;;;;;;;12.40;99.90;;;;;;5038642;28;19929;-87
2023/10/04 07:06:09;;;;;;;;;;;12.40;99.90;;;;;;5039237;28;19936;-87
2023/10/04 07:08:35;;;;;;;;;;;12.40;99.90;;;;;;5034662;28;19925;-87
2023/10/04 07:11:03;;;;;;;;;;;12.40;99.90;;;;;;5049292;28;19928;-88
2023/10/04 07:13:32;;;;;;;;;;;12.40;99.90;;;;;;5041659;28;19948;-89
2023/10/04 07:15:57;;;;;;;;;;;12.40;99.90;;;;;;5038009;28;19929;-89
2023/10/04 07:18:24;;;;;;;;;;;12.40;99.90;;;;;;5033639;28;19968;-87
2023/10/04 07:20:50;;;;;;;;;;;12.40;99.90;;;;;;5040623;28;19925;-88
2023/10/04 07:23:16;;;;;;;;;;;12.50;99.90;;;;;;5032479;28;19955;-88
2023/10/04 07:25:44;;;;;;;;;;;12.50;99.90;;;;;;5033169;28;19965;-88
2023/10/04 07:28:09;;;;;;;;;;;12.60;99.90;;;;;;5033090;28;20388;-87
2023/10/04 07:30:35;;;;;;;;;;;12.70;99.90;;;;;;5027076;28;19941;-87
2023/10/04 07:33:01;;;;;;;;;;;12.80;99.90;;;;;;5032152;28;20356;-87
2023/10/04 07:35:27;;;;;;;;;;;12.80;99.90;;;;;;5031042;28;19929;-89
2023/10/04 07:37:54;;;;;;;;;;;12.90;99.90;;;;;;5041176;28;19925;-88
2023/10/04 07:40:21;;;;;;;;;;;12.90;99.90;;;;;;5029483;28;19937;-90
2023/10/04 07:42:47;;;;;;;;;;;13.00;99.90;;;;;;5024661;28;19936;-87
2023/10/04 07:45:13;;;;;;;;;;;13.00;99.90;;;;;;5030499;28;19929;-90
2023/10/04 07:47:43;;;;;;;;;;;13.10;99.90;;;;;;5045072;28;19925;-86
2023/10/04 07:50:10;;;;;;;;;;;13.30;99.90;;;;;;5040802;28;20407;-89
2023/10/04 07:52:37;;;;;;;;;;;13.30;99.90;;;;;;5033849;28;19936;-88
2023/10/04 07:55:05;;;;;;;;;;;13.50;99.90;;;;;;5022581;28;19929;-91
2023/10/04 07:57:37;;;;;;;;;;;13.50;99.90;;;;;;5029182;28;19965;-89
2023/10/04 08:00:04;;;;;;;;;;;13.50;99.90;;;;;;5034210;28;19929;-89
2023/10/04 08:02:30;;;;;;;;;;;13.60;99.90;;;;;;5024682;28;19932;-86
2023/10/04 08:04:56;;;;;;;;;;;13.60;99.90;;;;;;5040680;28;19980;-89
2023/10/04 08:07:21;;;;;;;;;;;13.60;99.90;;;;;;5047652;28;19975;-88
2023/10/04 08:09:47;;;;;;;;;;;13.70;99.90;;;;;;5024875;28;19932;-88
2023/10/04 08:12:14;;;;;;;;;;;13.70;99.90;;;;;;5014079;28;19932;-88
2023/10/04 08:14:40;;;;;;;;;;;13.70;99.90;;;;;;5040594;28;19929;-88
2023/10/04 08:17:06;;;;;;;;;;;13.80;99.90;;;;;;5022008;28;19926;-93
2023/10/04 08:19:33;;;;;;;;;;;13.80;99.90;;;;;;5038140;28;19980;-85
2023/10/04 08:21:58;;;;;;;;;;;13.90;99.90;;;;;;5029968;28;20388;-85
2023/10/04 08:24:24;;;;;;;;;;;14.00;99.90;;;;;;5014483;28;19956;-87
2023/10/04 08:26:50;;;;;;;;;;;14.00;99.90;;;;;;5041699;28;19929;-87
2023/10/04 08:29:15;;;;;;;;;;;14.10;99.90;;;;;;5035746;28;19937;-87
2023/10/04 08:31:41;;;;;;;;;;;14.20;99.90;;;;;;5037099;28;19925;-87
2023/10/04 08:34:06;;;;;;;;;;;14.20;99.90;;;;;;5038993;28;19932;-87
2023/10/04 08:36:39;;;;;;;;;;;14.30;99.90;;;;;;5039204;28;19932;-87
2023/10/04 08:39:10;;;;;;;;;;;14.40;99.90;;;;;;5037268;28;19929;-86
2023/10/04 08:41:36;;;;;;;;;;;14.50;99.90;;;;;;5026584;28;19948;-87
2023/10/04 08:44:03;;;;;;;;;;;14.60;99.90;;;;;;5048212;28;19925;-87
2023/10/04 08:46:31;;;;;;;;;;;14.70;99.90;;;;;;5043824;28;19943;-85
2023/10/04 08:48:57;;;;;;;;;;;14.80;99.90;;;;;;5046741;28;19960;-84
2023/10/04 08:51:33;;;;;;;;;;;14.90;99.90;;;;;;5028206;28;19925;-83
2023/10/04 08:54:19;;;;;;;;;;;14.90;99.90;;;;;;5040366;28;19925;-85
2023/10/04 08:56:54;;;;;;;;;;;15.00;99.90;;;;;;5030671;28;19925;-84
2023/10/04 08:59:20;;;;;;;;;;;15.10;99.90;;;;;;5019980;28;19980;-84
2023/10/04 09:01:46;;;;;;;;;;;15.20;99.90;;;;;;5040330;28;19932;-86
2023/10/04 09:04:13;;;;;;;;;;;15.20;99.90;;;;;;5038664;28;19925;-85
2023/10/04 09:06:42;;;;;;;;;;;15.30;99.90;;;;;;5038769;28;19925;-86
2023/10/04 09:09:11;;;;;;;;;;;15.40;99.90;;;;;;5017620;28;19980;-88
2023/10/04 09:11:37;;;;;;;;;;;15.50;99.90;;;;;;5026152;28;19925;-86
2023/10/04 09:14:04;;;;;;;;;;;15.60;99.90;;;;;;5031363;28;20239;-85
2023/10/04 09:16:29;;;;;;;;;;;15.70;99.90;;;;;;5010134;28;19951;-86
2023/10/04 09:19:22;;;;;;;;;;;15.80;99.90;;;;;;5039614;28;19929;-87
2023/10/04 09:21:50;;;;;;;;;;;16.00;99.90;;;;;;5022130;28;19944;-86
2023/10/04 09:24:16;;;;;;;;;;;16.10;99.90;;;;;;5030369;28;20016;-87
2023/10/04 09:26:50;;;;;;;;;;;16.40;99.90;;;;;;5020069;28;19975;-86
2023/10/04 09:29:27;;;;;;;;;;;16.70;99.90;;;;;;5043912;28;19956;-86
2023/10/04 09:31:53;;;;;;;;;;;17.00;99.90;;;;;;5040210;28;19929;-91
2023/10/04 09:34:19;;;;;;;;;;;17.50;99.90;;;;;;5040291;28;19929;-88
2023/10/04 09:36:45;;;;;;;;;;;17.90;99.90;;;;;;5038608;28;19961;-86
2023/10/04 09:39:16;;;;;;;;;;;18.30;99.90;;;;;;5038752;28;19929;-88
2023/10/04 09:41:43;;;;;;;;;;;18.60;99.90;;;;;;5040149;28;19928;-86
2023/10/04 09:44:25;;;;;;;;;;;18.80;99.90;;;;;;5039462;28;20417;-87
2023/10/04 09:47:02;;;;;;;;;;;18.90;99.90;;;;;;5036851;28;19932;-85
2023/10/04 09:49:31;;;;;;;;;;;19.00;99.90;;;;;;5040997;28;19949;-85
2023/10/04 09:51:57;;;;;;;;;;;19.10;99.90;;;;;;5040221;28;20004;-85
2023/10/04 09:54:23;;;;;;;;;;;19.00;99.90;;;;;;5040037;28;20257;-88
2023/10/04 09:56:51;;;;;;;;;;;18.90;99.90;;;;;;5029658;28;20440;-85
2023/10/04 09:59:20;;;;;;;;;;;18.80;99.90;;;;;;5035573;28;20024;-85
2023/10/04 10:01:59;;;;;;;;;;;18.70;99.90;;;;;;5041109;28;19925;-85
2023/10/04 10:04:28;;;;;;;;;;;18.60;99.90;;;;;;5038195;28;19939;-85
2023/10/04 10:07:09;;;;;;;;;;;18.40;99.90;;;;;;5038881;28;19976;-86
2023/10/04 10:09:36;;;;;;;;;;;18.30;99.90;;;;;;5036518;28;19988;-87
2023/10/04 10:12:02;;;;;;;;;;;18.10;99.90;;;;;;5038682;28;19933;-87
2023/10/04 10:14:28;;;;;;;;;;;17.90;99.90;;;;;;5042201;28;19926;-85
2023/10/04 10:16:55;;;;;;;;;;;17.70;99.90;;;;;;5051880;28;19929;-85
2023/10/04 10:19:23;;;;;;;;;;;17.70;99.90;;;;;;5039464;28;19925;-86
2023/10/04 10:22:02;;;;;;;;;;;17.70;99.90;;;;;;5029415;28;19925;-89
2023/10/04 10:24:27;;;;;;;;;;;17.70;99.90;;;;;;5033695;28;19952;-87
2023/10/04 10:27:09;;;;;;;;;;;17.70;99.90;;;;;;5019105;28;20381;-87
2023/10/04 10:29:36;;;;;;;;;;;17.70;99.90;;;;;;5033864;28;20386;-87
2023/10/04 10:32:04;;;;;;;;;;;17.60;99.90;;;;;;5031974;28;19994;-86
2023/10/04 10:34:30;;;;;;;;;;;17.60;99.90;;;;;;5043052;28;19980;-85
2023/10/04 10:37:29;;;;;;;;;;;17.60;99.90;;;;;;5043736;28;19929;-85
2023/10/04 10:40:04;;;;;;;;;;;17.50;99.90;;;;;;5006508;28;19999;-85
2023/10/04 10:42:49;;;;;;;;;;;17.50;99.90;;;;;;5031311;28;19963;-84
2023/10/04 10:45:28;;;;;;;;;;;17.60;99.90;;;;;;5038220;28;19929;-84
2023/10/04 10:47:56;;;;;;;;;;;17.60;99.90;;;;;;5042502;28;19925;-86
2023/10/04 10:50:35;;;;;;;;;;;17.60;99.90;;;;;;5042166;28;20415;-83
2023/10/04 10:53:09;;;;;;;;;;;17.60;99.90;;;;;;5035898;28;19964;-87
2023/10/04 10:55:34;;;;;;;;;;;17.60;99.90;;;;;;5055434;28;19929;-86
2023/10/04 10:58:00;;;;;;;;;;;17.70;99.90;;;;;;5029888;28;19925;-87
2023/10/04 11:00:31;;;;;;;;;;;17.50;99.90;;;;;;5058108;28;19983;-88
2023/10/04 11:02:57;;;;;;;;;;;17.50;99.90;;;;;;5039553;28;19929;-86
2023/10/04 11:05:23;;;;;;;;;;;17.30;99.90;;;;;;5041866;28;19925;-85
2023/10/04 11:07:49;;;;;;;;;;;17.20;99.90;;;;;;5042106;28;20019;-85
2023/10/04 11:10:20;;;;;;;;;;;17.20;99.90;;;;;;5043684;28;19955;-82
2023/10/04 11:12:46;;;;;;;;;;;17.20;99.90;;;;;;5032855;28;19925;-84
2023/10/04 11:15:12;;;;;;;;;;;17.20;99.90;;;;;;5043160;28;20377;-84
2023/10/04 11:17:38;;;;;;;;;;;17.20;99.90;;;;;;5042701;28;19951;-85
2023/10/04 11:20:09;;;;;;;;;;;17.20;99.90;;;;;;5056640;28;19972;-84
2023/10/04 11:22:38;;;;;;;;;;;17.10;99.90;;;;;;5039045;28;19933;-84
2023/10/04 11:25:07;;;;;;;;;;;17.10;99.90;;;;;;5022890;28;19925;-83
2023/10/04 11:27:34;;;;;;;;;;;17.10;99.90;;;;;;5043170;28;19992;-84
2023/10/04 11:30:00;;;;;;;;;;;17.20;99.90;;;;;;5040481;28;19925;-83
2023/10/04 11:32:28;;;;;;;;;;;17.10;99.90;;;;;;5042049;28;19973;-86
2023/10/04 11:34:55;;;;;;;;;;;17.10;99.90;;;;;;5024559;28;19933;-86
2023/10/04 11:37:21;;;;;;;;;;;17.10;99.90;;;;;;5040650;28;19925;-85
2023/10/04 11:39:47;;;;;;;;;;;17.00;99.90;;;;;;5042264;28;20034;-85
2023/10/04 11:42:23;;;;;;;;;;;17.00;99.90;;;;;;5054963;28;19929;-87
2023/10/04 11:44:49;;;;;;;;;;;17.00;99.90;;;;;;5030556;28;19925;-86
2023/10/04 11:47:25;;;;;;;;;;;17.00;99.90;;;;;;5040774;28;20040;-85
2023/10/04 11:49:54;;;;;;;;;;;17.00;99.90;;;;;;5029897;28;19925;-86
2023/10/04 11:52:21;;;;;;;;;;;17.00;99.90;;;;;;5039206;28;19951;-85
2023/10/04 11:54:47;;;;;;;;;;;17.10;99.90;;;;;;5026400;28;19926;-85
2023/10/04 11:57:23;;;;;;;;;;;17.20;99.90;;;;;;5026542;28;19932;-85
2023/10/04 11:59:49;;;;;;;;;;;17.20;99.90;;;;;;5023721;28;19936;-86
2023/10/04 12:02:14;;;;;;;;;;;17.30;99.90;;;;;;5033065;28;19928;-85
2023/10/04 12:04:40;;;;;;;;;;;17.30;99.90;;;;;;5023614;28;19930;-85
2023/10/04 12:07:09;;;;;;;;;;;17.30;99.90;;;;;;5023319;28;20336;-86
2023/10/04 12:09:35;;;;;;;;;;;17.40;99.90;;;;;;5036577;28;19968;-87
2023/10/04 12:12:07;;;;;;;;;;;17.30;99.90;;;;;;5035598;28;19932;-84
2023/10/04 12:14:34;;;;;;;;;;;17.40;99.90;;;;;;5037419;28;19929;-85
2023/10/04 12:17:03;;;;;;;;;;;17.40;99.90;;;;;;5030962;28;19932;-84
2023/10/04 12:19:32;;;;;;;;;;;17.40;99.90;;;;;;5031924;28;19953;-84
2023/10/04 12:21:59;;;;;;;;;;;17.50;99.90;;;;;;5048561;28;19931;-85
2023/10/04 12:24:26;;;;;;;;;;;17.50;99.90;;;;;;5042087;28;20291;-85
2023/10/04 12:26:55;;;;;;;;;;;17.40;99.90;;;;;;5041620;28;20437;-85
2023/10/04 12:29:21;;;;;;;;;;;17.40;99.90;;;;;;5048064;28;19932;-85
2023/10/04 12:31:47;;;;;;;;;;;17.30;99.90;;;;;;5050760;28;19956;-84
2023/10/04 12:34:13;;;;;;;;;;;17.10;99.90;;;;;;5041504;28;19935;-85
2023/10/04 12:36:39;;;;;;;;;;;17.00;99.90;;;;;;5040608;28;19984;-83
2023/10/04 12:39:06;;;;;;;;;;;16.80;99.90;;;;;;5026827;28;19968;-83
2023/10/04 12:41:32;;;;;;;;;;;16.70;99.90;;;;;;5033423;28;19948;-84
2023/10/04 12:43:57;;;;;;;;;;;16.50;99.90;;;;;;5028923;28;19989;-85
2023/10/04 12:46:23;;;;;;;;;;;16.40;99.90;;;;;;5039682;28;19948;-84
2023/10/04 12:48:49;;;;;;;;;;;16.50;99.90;;;;;;5035472;28;20016;-85
2023/10/04 12:51:14;;;;;;;;;;;16.50;99.90;;;;;;5040248;28;19928;-84
2023/10/04 12:53:40;;;;;;;;;;;16.60;99.90;;;;;;5031050;28;19929;-84
2023/10/04 12:56:07;;;;;;;;;;;16.70;99.90;;;;;;5024239;28;20447;-84
2023/10/04 12:58:33;;;;;;;;;;;16.80;99.90;;;;;;5026792;28;19988;-84
2023/10/04 13:00:58;;;;;;;;;;;16.90;99.90;;;;;;5027232;28;19926;-84
2023/10/04 13:03:24;;;;;;;;;;;17.00;99.90;;;;;;5028118;28;20305;-84
2023/10/04 13:05:50;;;;;;;;;;;17.10;99.90;;;;;;5037354;28;19936;-86
2023/10/04 13:08:20;;;;;;;;;;;17.20;99.90;;;;;;5039255;28;19929;-85
2023/10/04 13:10:47;;;;;;;;;;;17.20;99.90;;;;;;5036767;28;19925;-83
2023/10/04 13:13:13;;;;;;;;;;;17.20;99.90;;;;;;5040252;28;19977;-83
2023/10/04 13:15:39;;;;;;;;;;;17.20;99.90;;;;;;5033224;28;20364;-83
2023/10/04 13:18:08;;;;;;;;;;;17.20;99.90;;;;;;5038834;28;19929;-83
2023/10/04 13:20:33;;;;;;;;;;;17.10;99.90;;;;;;5029154;28;19932;-84
2023/10/04 13:22:59;;;;;;;;;;;17.00;99.90;;;;;;5036831;28;20200;-83
2023/10/04 13:25:24;;;;;;;;;;;17.00;99.90;;;;;;5039810;28;20048;-84
2023/10/04 13:27:50;;;;;;;;;;;16.90;99.90;;;;;;5036776;28;19926;-84
2023/10/04 13:30:16;;;;;;;;;;;16.90;99.90;;;;;;5035563;28;19944;-83
2023/10/04 13:32:47;;;;;;;;;;;17.00;99.90;;;;;;5031257;28;19952;-83
2023/10/04 13:35:16;;;;;;;;;;;17.00;99.90;;;;;;5040364;28;19932;-84
2023/10/04 13:37:45;;;;;;;;;;;17.00;99.90;;;;;;5040099;28;19925;-82
2023/10/04 13:40:19;;;;;;;;;;;17.10;99.90;;;;;;5033160;28;20687;-83
2023/10/04 13:42:53;;;;;;;;;;;17.10;99.90;;;;;;5039277;28;19929;-83
2023/10/04 13:45:19;;;;;;;;;;;17.20;99.90;;;;;;5040579;28;20020;-83
2023/10/04 13:47:45;;;;;;;;;;;17.20;99.90;;;;;;5038264;28;19929;-86
2023/10/04 13:50:11;;;;;;;;;;;17.20;99.90;;;;;;5037006;28;19988;-85
2023/10/04 13:52:39;;;;;;;;;;;17.20;99.90;;;;;;5032195;28;20411;-86
2023/10/04 13:55:04;;;;;;;;;;;17.10;99.90;;;;;;5024180;28;19933;-86
2023/10/04 13:57:30;;;;;;;;;;;17.10;99.90;;;;;;5022889;28;20347;-88
2023/10/04 13:59:56;;;;;;;;;;;17.00;99.90;;;;;;5044594;28;19933;-85
2023/10/04 14:02:22;;;;;;;;;;;16.90;99.90;;;;;;5026257;28;19964;-82
2023/10/04 14:04:48;;;;;;;;;;;16.90;99.90;;;;;;5041786;28;19925;-85
2023/10/04 14:07:14;;;;;;;;;;;16.90;99.90;;;;;;5028899;28;20515;-86
2023/10/04 14:09:39;;;;;;;;;;;16.90;99.90;;;;;;5040391;28;19932;-84
2023/10/04 14:12:05;;;;;;;;;;;16.90;99.90;;;;;;5040976;28;19929;-84
2023/10/04 14:14:31;;;;;;;;;;;16.90;99.90;;;;;;5029652;28;19933;-83
2023/10/04 14:17:04;;;;;;;;;;;17.00;99.90;;;;;;5053712;28;20372;-85
2023/10/04 14:19:31;;;;;;;;;;;17.00;99.90;;;;;;5049199;28;19925;-83